sensor_id;sensor_type;location;lat;lon;timestamp;P1;durP1;ratioP1;P2;durP2;ratioP2
74291;SDS011;62687;55.738;37.516;2023-06-26T00:00:11;23.63;;;11.75;;
74291;SDS011;62687;55.738;37.516;2023-06-26T00:02:55;17.75;;;9.40;;
74291;SDS011;62687;55.738;37.516;2023-06-26T00:05:39;15.73;;;8.45;;
74291;SDS011;62687;55.738;37.516;2023-06-26T00:08:23;13.77;;;7.35;;
74291;SDS011;62687;55.738;37.516;2023-06-26T00:11:08;15.95;;;6.80;;
74291;SDS011;62687;55.738;37.516;2023-06-26T00:13:52;13.05;;;6.78;;
74291;SDS011;62687;55.738;37.516;2023-06-26T00:16:36;13.55;;;6.90;;
74291;SDS011;62687;55.738;37.516;2023-06-26T00:19:20;14.02;;;6.47;;
74291;SDS011;62687;55.738;37.516;2023-06-26T00:22:03;15.23;;;7.13;;
74291;SDS011;62687;55.738;37.516;2023-06-26T00:24:48;19.55;;;7.70;;
74291;SDS011;62687;55.738;37.516;2023-06-26T00:27:31;18.30;;;7.88;;
74291;SDS011;62687;55.738;37.516;2023-06-26T00:30:15;21.08;;;8.25;;
74291;SDS011;62687;55.738;37.516;2023-06-26T00:32:59;20.67;;;7.90;;
74291;SDS011;62687;55.738;37.516;2023-06-26T00:35:43;15.85;;;6.90;;
74291;SDS011;62687;55.738;37.516;2023-06-26T00:38:27;18.17;;;7.07;;
74291;SDS011;62687;55.738;37.516;2023-06-26T00:41:11;18.48;;;7.80;;
74291;SDS011;62687;55.738;37.516;2023-06-26T00:46:40;18.73;;;7.65;;
74291;SDS011;62687;55.738;37.516;2023-06-26T00:49:26;18.10;;;8.15;;
74291;SDS011;62687;55.738;37.516;2023-06-26T00:52:10;17.08;;;8.55;;
74291;SDS011;62687;55.738;37.516;2023-06-26T00:54:55;17.40;;;7.40;;
74291;SDS011;62687;55.738;37.516;2023-06-26T00:57:39;21.35;;;7.68;;
74291;SDS011;62687;55.738;37.516;2023-06-26T01:00:23;16.95;;;7.75;;
74291;SDS011;62687;55.738;37.516;2023-06-26T01:03:07;22.35;;;9.05;;
74291;SDS011;62687;55.738;37.516;2023-06-26T01:05:54;21.10;;;8.60;;
74291;SDS011;62687;55.738;37.516;2023-06-26T01:08:39;25.15;;;7.78;;
74291;SDS011;62687;55.738;37.516;2023-06-26T01:11:25;24.60;;;7.75;;
74291;SDS011;62687;55.738;37.516;2023-06-26T01:14:09;32.50;;;8.50;;
74291;SDS011;62687;55.738;37.516;2023-06-26T01:16:53;25.95;;;8.25;;
74291;SDS011;62687;55.738;37.516;2023-06-26T01:19:41;26.90;;;7.93;;
74291;SDS011;62687;55.738;37.516;2023-06-26T01:25:25;25.98;;;8.80;;
74291;SDS011;62687;55.738;37.516;2023-06-26T01:28:13;29.17;;;9.00;;
74291;SDS011;62687;55.738;37.516;2023-06-26T01:30:58;25.38;;;9.05;;
74291;SDS011;62687;55.738;37.516;2023-06-26T01:33:43;24.10;;;8.63;;
74291;SDS011;62687;55.738;37.516;2023-06-26T01:36:27;27.40;;;11.95;;
74291;SDS011;62687;55.738;37.516;2023-06-26T01:39:15;26.77;;;9.95;;
74291;SDS011;62687;55.738;37.516;2023-06-26T01:42:00;19.88;;;8.52;;
74291;SDS011;62687;55.738;37.516;2023-06-26T01:44:45;21.92;;;8.98;;
74291;SDS011;62687;55.738;37.516;2023-06-26T01:47:30;21.33;;;8.50;;
74291;SDS011;62687;55.738;37.516;2023-06-26T01:50:26;26.38;;;8.98;;
74291;SDS011;62687;55.738;37.516;2023-06-26T01:53:12;27.38;;;10.32;;
74291;SDS011;62687;55.738;37.516;2023-06-26T01:56:03;25.88;;;9.55;;
74291;SDS011;62687;55.738;37.516;2023-06-26T01:58:49;31.05;;;9.85;;
74291;SDS011;62687;55.738;37.516;2023-06-26T02:01:33;22.00;;;9.05;;
74291;SDS011;62687;55.738;37.516;2023-06-26T02:04:17;24.52;;;9.43;;
74291;SDS011;62687;55.738;37.516;2023-06-26T02:07:01;20.27;;;9.23;;
74291;SDS011;62687;55.738;37.516;2023-06-26T02:09:45;25.70;;;10.00;;
74291;SDS011;62687;55.738;37.516;2023-06-26T02:12:29;34.72;;;10.38;;
74291;SDS011;62687;55.738;37.516;2023-06-26T02:15:13;20.13;;;9.25;;
74291;SDS011;62687;55.738;37.516;2023-06-26T02:17:57;27.13;;;10.15;;
74291;SDS011;62687;55.738;37.516;2023-06-26T02:20:41;24.95;;;9.93;;
74291;SDS011;62687;55.738;37.516;2023-06-26T02:23:24;26.17;;;9.98;;
74291;SDS011;62687;55.738;37.516;2023-06-26T02:26:08;26.63;;;9.93;;
74291;SDS011;62687;55.738;37.516;2023-06-26T02:28:52;24.80;;;9.93;;
74291;SDS011;62687;55.738;37.516;2023-06-26T02:31:36;25.50;;;9.98;;
74291;SDS011;62687;55.738;37.516;2023-06-26T02:34:20;22.42;;;9.88;;
74291;SDS011;62687;55.738;37.516;2023-06-26T02:37:02;26.13;;;10.30;;
74291;SDS011;62687;55.738;37.516;2023-06-26T02:39:45;25.52;;;10.88;;
74291;SDS011;62687;55.738;37.516;2023-06-26T02:42:30;27.40;;;11.10;;
74291;SDS011;62687;55.738;37.516;2023-06-26T02:47:58;25.75;;;11.60;;
74291;SDS011;62687;55.738;37.516;2023-06-26T02:50:42;28.38;;;11.00;;
74291;SDS011;62687;55.738;37.516;2023-06-26T02:53:30;20.80;;;10.95;;
74291;SDS011;62687;55.738;37.516;2023-06-26T02:56:15;27.30;;;11.57;;
74291;SDS011;62687;55.738;37.516;2023-06-26T02:58:59;25.20;;;11.57;;
74291;SDS011;62687;55.738;37.516;2023-06-26T03:01:43;28.27;;;11.38;;
74291;SDS011;62687;55.738;37.516;2023-06-26T03:04:27;34.22;;;12.65;;
74291;SDS011;62687;55.738;37.516;2023-06-26T03:07:11;27.27;;;12.20;;
74291;SDS011;62687;55.738;37.516;2023-06-26T03:09:55;27.35;;;12.45;;
74291;SDS011;62687;55.738;37.516;2023-06-26T03:12:39;25.70;;;12.52;;
74291;SDS011;62687;55.738;37.516;2023-06-26T03:15:23;31.15;;;12.75;;
74291;SDS011;62687;55.738;37.516;2023-06-26T03:18:07;29.00;;;11.80;;
74291;SDS011;62687;55.738;37.516;2023-06-26T03:20:51;26.63;;;14.30;;
74291;SDS011;62687;55.738;37.516;2023-06-26T03:23:37;28.52;;;11.73;;
74291;SDS011;62687;55.738;37.516;2023-06-26T03:26:21;30.50;;;12.85;;
74291;SDS011;62687;55.738;37.516;2023-06-26T03:29:11;28.55;;;13.00;;
74291;SDS011;62687;55.738;37.516;2023-06-26T03:31:55;28.10;;;13.23;;
74291;SDS011;62687;55.738;37.516;2023-06-26T03:34:39;28.25;;;13.43;;
74291;SDS011;62687;55.738;37.516;2023-06-26T03:37:23;23.38;;;13.13;;
74291;SDS011;62687;55.738;37.516;2023-06-26T03:40:07;24.50;;;13.43;;
74291;SDS011;62687;55.738;37.516;2023-06-26T03:42:51;23.90;;;13.30;;
74291;SDS011;62687;55.738;37.516;2023-06-26T03:45:35;31.88;;;14.40;;
74291;SDS011;62687;55.738;37.516;2023-06-26T03:48:19;28.52;;;13.60;;
74291;SDS011;62687;55.738;37.516;2023-06-26T03:51:03;26.30;;;13.50;;
74291;SDS011;62687;55.738;37.516;2023-06-26T03:53:48;32.35;;;12.95;;
74291;SDS011;62687;55.738;37.516;2023-06-26T03:56:32;26.10;;;14.15;;
74291;SDS011;62687;55.738;37.516;2023-06-26T03:59:16;30.08;;;14.35;;
74291;SDS011;62687;55.738;37.516;2023-06-26T04:01:59;27.92;;;14.68;;
74291;SDS011;62687;55.738;37.516;2023-06-26T04:04:44;30.60;;;14.85;;
74291;SDS011;62687;55.738;37.516;2023-06-26T04:07:28;32.28;;;15.60;;
74291;SDS011;62687;55.738;37.516;2023-06-26T04:10:12;29.88;;;14.77;;
74291;SDS011;62687;55.738;37.516;2023-06-26T04:12:56;29.30;;;14.40;;
74291;SDS011;62687;55.738;37.516;2023-06-26T04:15:40;35.78;;;15.13;;
74291;SDS011;62687;55.738;37.516;2023-06-26T04:18:24;32.70;;;16.23;;
74291;SDS011;62687;55.738;37.516;2023-06-26T04:21:10;27.40;;;15.40;;
74291;SDS011;62687;55.738;37.516;2023-06-26T04:23:55;29.85;;;14.75;;
74291;SDS011;62687;55.738;37.516;2023-06-26T04:26:39;41.70;;;17.55;;
74291;SDS011;62687;55.738;37.516;2023-06-26T04:29:25;41.58;;;15.95;;
74291;SDS011;62687;55.738;37.516;2023-06-26T04:32:10;50.53;;;16.55;;
74291;SDS011;62687;55.738;37.516;2023-06-26T04:34:54;26.02;;;12.88;;
74291;SDS011;62687;55.738;37.516;2023-06-26T04:37:38;24.08;;;12.80;;
74291;SDS011;62687;55.738;37.516;2023-06-26T04:40:22;20.70;;;11.60;;
74291;SDS011;62687;55.738;37.516;2023-06-26T04:43:07;22.35;;;11.35;;
74291;SDS011;62687;55.738;37.516;2023-06-26T04:45:51;22.88;;;10.70;;
74291;SDS011;62687;55.738;37.516;2023-06-26T04:48:35;21.30;;;10.50;;
74291;SDS011;62687;55.738;37.516;2023-06-26T04:51:19;21.42;;;11.60;;
74291;SDS011;62687;55.738;37.516;2023-06-26T04:54:04;18.13;;;11.27;;
74291;SDS011;62687;55.738;37.516;2023-06-26T04:56:48;19.98;;;10.85;;
74291;SDS011;62687;55.738;37.516;2023-06-26T04:59:32;20.67;;;10.70;;
74291;SDS011;62687;55.738;37.516;2023-06-26T05:02:16;17.23;;;10.02;;
74291;SDS011;62687;55.738;37.516;2023-06-26T05:05:00;16.67;;;9.13;;
74291;SDS011;62687;55.738;37.516;2023-06-26T05:07:44;16.27;;;8.73;;
74291;SDS011;62687;55.738;37.516;2023-06-26T05:10:28;18.10;;;9.20;;
74291;SDS011;62687;55.738;37.516;2023-06-26T05:13:12;15.27;;;9.25;;
74291;SDS011;62687;55.738;37.516;2023-06-26T05:15:58;15.65;;;8.75;;
74291;SDS011;62687;55.738;37.516;2023-06-26T05:18:42;12.02;;;7.72;;
74291;SDS011;62687;55.738;37.516;2023-06-26T05:21:26;10.80;;;7.30;;
74291;SDS011;62687;55.738;37.516;2023-06-26T05:24:10;12.30;;;8.35;;
74291;SDS011;62687;55.738;37.516;2023-06-26T05:26:56;13.35;;;7.65;;
74291;SDS011;62687;55.738;37.516;2023-06-26T05:29:40;11.80;;;6.50;;
74291;SDS011;62687;55.738;37.516;2023-06-26T05:32:24;12.02;;;6.68;;
74291;SDS011;62687;55.738;37.516;2023-06-26T05:35:09;12.25;;;6.75;;
74291;SDS011;62687;55.738;37.516;2023-06-26T05:37:53;14.98;;;7.05;;
74291;SDS011;62687;55.738;37.516;2023-06-26T05:40:38;11.05;;;7.20;;
74291;SDS011;62687;55.738;37.516;2023-06-26T05:43:24;10.38;;;6.82;;
74291;SDS011;62687;55.738;37.516;2023-06-26T05:46:08;9.18;;;6.38;;
74291;SDS011;62687;55.738;37.516;2023-06-26T05:48:51;9.20;;;6.15;;
74291;SDS011;62687;55.738;37.516;2023-06-26T05:51:36;14.88;;;6.78;;
74291;SDS011;62687;55.738;37.516;2023-06-26T05:54:19;12.43;;;7.22;;
74291;SDS011;62687;55.738;37.516;2023-06-26T05:57:04;8.75;;;5.97;;
74291;SDS011;62687;55.738;37.516;2023-06-26T05:59:48;9.10;;;5.57;;
74291;SDS011;62687;55.738;37.516;2023-06-26T06:02:33;11.65;;;7.72;;
74291;SDS011;62687;55.738;37.516;2023-06-26T06:05:17;9.20;;;5.50;;
74291;SDS011;62687;55.738;37.516;2023-06-26T06:08:01;10.45;;;6.53;;
74291;SDS011;62687;55.738;37.516;2023-06-26T06:10:44;8.00;;;5.80;;
74291;SDS011;62687;55.738;37.516;2023-06-26T06:13:28;9.68;;;6.40;;
74291;SDS011;62687;55.738;37.516;2023-06-26T06:16:12;11.88;;;5.30;;
74291;SDS011;62687;55.738;37.516;2023-06-26T06:18:56;17.70;;;8.00;;
74291;SDS011;62687;55.738;37.516;2023-06-26T06:21:40;12.27;;;7.30;;
74291;SDS011;62687;55.738;37.516;2023-06-26T06:24:24;8.90;;;5.88;;
74291;SDS011;62687;55.738;37.516;2023-06-26T06:27:08;14.48;;;7.22;;
74291;SDS011;62687;55.738;37.516;2023-06-26T06:29:52;8.95;;;6.18;;
74291;SDS011;62687;55.738;37.516;2023-06-26T06:32:36;14.02;;;7.25;;
74291;SDS011;62687;55.738;37.516;2023-06-26T06:35:20;8.52;;;5.95;;
74291;SDS011;62687;55.738;37.516;2023-06-26T06:38:04;9.63;;;5.90;;
74291;SDS011;62687;55.738;37.516;2023-06-26T06:40:48;14.40;;;7.95;;
74291;SDS011;62687;55.738;37.516;2023-06-26T06:43:32;8.40;;;6.38;;
74291;SDS011;62687;55.738;37.516;2023-06-26T06:46:16;12.05;;;6.75;;
74291;SDS011;62687;55.738;37.516;2023-06-26T06:49:00;9.25;;;6.15;;
74291;SDS011;62687;55.738;37.516;2023-06-26T06:51:43;10.93;;;6.22;;
74291;SDS011;62687;55.738;37.516;2023-06-26T06:54:27;8.95;;;6.40;;
74291;SDS011;62687;55.738;37.516;2023-06-26T06:57:12;8.90;;;4.78;;
74291;SDS011;62687;55.738;37.516;2023-06-26T06:59:56;7.07;;;4.50;;
74291;SDS011;62687;55.738;37.516;2023-06-26T07:02:41;6.55;;;4.97;;
74291;SDS011;62687;55.738;37.516;2023-06-26T07:05:25;8.68;;;5.30;;
74291;SDS011;62687;55.738;37.516;2023-06-26T07:08:09;11.32;;;7.38;;
74291;SDS011;62687;55.738;37.516;2023-06-26T07:10:53;9.25;;;5.32;;
74291;SDS011;62687;55.738;37.516;2023-06-26T07:13:37;12.07;;;6.60;;
74291;SDS011;62687;55.738;37.516;2023-06-26T07:16:21;10.00;;;4.25;;
74291;SDS011;62687;55.738;37.516;2023-06-26T07:19:05;8.02;;;4.80;;
74291;SDS011;62687;55.738;37.516;2023-06-26T07:21:49;12.20;;;5.57;;
74291;SDS011;62687;55.738;37.516;2023-06-26T07:24:33;7.57;;;4.60;;
74291;SDS011;62687;55.738;37.516;2023-06-26T07:27:17;7.20;;;5.07;;
74291;SDS011;62687;55.738;37.516;2023-06-26T07:30:02;7.07;;;4.90;;
74291;SDS011;62687;55.738;37.516;2023-06-26T07:32:47;7.90;;;4.72;;
74291;SDS011;62687;55.738;37.516;2023-06-26T07:35:31;7.78;;;5.47;;
74291;SDS011;62687;55.738;37.516;2023-06-26T07:38:15;9.40;;;5.57;;
74291;SDS011;62687;55.738;37.516;2023-06-26T07:40:58;11.77;;;5.15;;
74291;SDS011;62687;55.738;37.516;2023-06-26T07:43:42;8.30;;;5.55;;
74291;SDS011;62687;55.738;37.516;2023-06-26T07:46:26;8.75;;;5.07;;
74291;SDS011;62687;55.738;37.516;2023-06-26T07:49:11;9.10;;;5.60;;
74291;SDS011;62687;55.738;37.516;2023-06-26T07:54:39;8.82;;;4.22;;
74291;SDS011;62687;55.738;37.516;2023-06-26T07:57:23;9.82;;;4.85;;
74291;SDS011;62687;55.738;37.516;2023-06-26T08:00:07;9.30;;;5.60;;
74291;SDS011;62687;55.738;37.516;2023-06-26T08:02:51;11.45;;;5.03;;
74291;SDS011;62687;55.738;37.516;2023-06-26T08:05:35;12.98;;;5.10;;
74291;SDS011;62687;55.738;37.516;2023-06-26T08:08:19;6.93;;;5.07;;
74291;SDS011;62687;55.738;37.516;2023-06-26T08:11:03;8.60;;;4.90;;
74291;SDS011;62687;55.738;37.516;2023-06-26T08:13:47;10.07;;;5.22;;
74291;SDS011;62687;55.738;37.516;2023-06-26T08:16:31;12.32;;;5.82;;
74291;SDS011;62687;55.738;37.516;2023-06-26T08:19:15;12.15;;;5.30;;
74291;SDS011;62687;55.738;37.516;2023-06-26T08:22:00;7.03;;;4.50;;
74291;SDS011;62687;55.738;37.516;2023-06-26T08:24:44;12.60;;;5.70;;
74291;SDS011;62687;55.738;37.516;2023-06-26T08:27:28;12.90;;;4.72;;
74291;SDS011;62687;55.738;37.516;2023-06-26T08:30:12;12.23;;;5.35;;
74291;SDS011;62687;55.738;37.516;2023-06-26T08:32:56;9.43;;;5.68;;
74291;SDS011;62687;55.738;37.516;2023-06-26T08:35:41;7.43;;;5.10;;
74291;SDS011;62687;55.738;37.516;2023-06-26T08:38:26;7.93;;;5.40;;
74291;SDS011;62687;55.738;37.516;2023-06-26T08:41:10;9.90;;;5.10;;
74291;SDS011;62687;55.738;37.516;2023-06-26T08:43:57;11.10;;;4.90;;
74291;SDS011;62687;55.738;37.516;2023-06-26T08:46:41;11.02;;;5.65;;
74291;SDS011;62687;55.738;37.516;2023-06-26T08:49:28;15.30;;;6.10;;
74291;SDS011;62687;55.738;37.516;2023-06-26T08:52:17;9.38;;;5.80;;
74291;SDS011;62687;55.738;37.516;2023-06-26T08:55:05;10.80;;;5.28;;
74291;SDS011;62687;55.738;37.516;2023-06-26T08:57:51;7.07;;;4.90;;
74291;SDS011;62687;55.738;37.516;2023-06-26T09:00:35;11.60;;;6.22;;
74291;SDS011;62687;55.738;37.516;2023-06-26T09:03:19;12.50;;;5.47;;
74291;SDS011;62687;55.738;37.516;2023-06-26T09:06:03;7.32;;;5.22;;
74291;SDS011;62687;55.738;37.516;2023-06-26T09:08:47;14.35;;;6.03;;
74291;SDS011;62687;55.738;37.516;2023-06-26T09:11:31;10.63;;;5.90;;
74291;SDS011;62687;55.738;37.516;2023-06-26T09:14:15;9.00;;;5.63;;
74291;SDS011;62687;55.738;37.516;2023-06-26T09:16:59;10.43;;;5.50;;
74291;SDS011;62687;55.738;37.516;2023-06-26T09:19:45;6.95;;;4.82;;
74291;SDS011;62687;55.738;37.516;2023-06-26T09:22:29;8.13;;;5.18;;
74291;SDS011;62687;55.738;37.516;2023-06-26T09:25:13;10.23;;;6.03;;
74291;SDS011;62687;55.738;37.516;2023-06-26T09:27:57;10.38;;;5.38;;
74291;SDS011;62687;55.738;37.516;2023-06-26T09:30:41;12.48;;;5.80;;
74291;SDS011;62687;55.738;37.516;2023-06-26T09:33:25;8.13;;;5.70;;
74291;SDS011;62687;55.738;37.516;2023-06-26T09:36:18;10.32;;;5.55;;
74291;SDS011;62687;55.738;37.516;2023-06-26T09:39:03;11.10;;;5.68;;
74291;SDS011;62687;55.738;37.516;2023-06-26T09:41:48;10.90;;;6.10;;
74291;SDS011;62687;55.738;37.516;2023-06-26T09:44:33;10.30;;;5.78;;
74291;SDS011;62687;55.738;37.516;2023-06-26T09:47:20;8.60;;;5.25;;
74291;SDS011;62687;55.738;37.516;2023-06-26T09:50:05;9.45;;;5.13;;
74291;SDS011;62687;55.738;37.516;2023-06-26T09:52:50;10.05;;;5.20;;
74291;SDS011;62687;55.738;37.516;2023-06-26T09:55:34;7.05;;;5.20;;
74291;SDS011;62687;55.738;37.516;2023-06-26T09:58:19;8.38;;;4.60;;
74291;SDS011;62687;55.738;37.516;2023-06-26T10:01:04;9.80;;;5.22;;
74291;SDS011;62687;55.738;37.516;2023-06-26T10:03:48;8.95;;;4.20;;
74291;SDS011;62687;55.738;37.516;2023-06-26T10:06:40;14.20;;;5.40;;
74291;SDS011;62687;55.738;37.516;2023-06-26T10:09:25;10.45;;;5.00;;
74291;SDS011;62687;55.738;37.516;2023-06-26T10:14:52;9.38;;;5.13;;
74291;SDS011;62687;55.738;37.516;2023-06-26T10:17:37;8.45;;;5.30;;
74291;SDS011;62687;55.738;37.516;2023-06-26T10:20:22;8.45;;;4.60;;
74291;SDS011;62687;55.738;37.516;2023-06-26T10:23:08;6.22;;;4.85;;
74291;SDS011;62687;55.738;37.516;2023-06-26T10:25:54;10.00;;;4.88;;
74291;SDS011;62687;55.738;37.516;2023-06-26T10:28:39;7.40;;;4.78;;
74291;SDS011;62687;55.738;37.516;2023-06-26T10:31:26;7.30;;;4.78;;
74291;SDS011;62687;55.738;37.516;2023-06-26T10:34:12;8.48;;;5.10;;
74291;SDS011;62687;55.738;37.516;2023-06-26T10:37:00;7.47;;;4.50;;
74291;SDS011;62687;55.738;37.516;2023-06-26T10:39:48;9.90;;;4.32;;
74291;SDS011;62687;55.738;37.516;2023-06-26T10:42:37;8.70;;;4.90;;
74291;SDS011;62687;55.738;37.516;2023-06-26T10:45:22;9.50;;;5.15;;
74291;SDS011;62687;55.738;37.516;2023-06-26T10:48:06;13.38;;;5.13;;
74291;SDS011;62687;55.738;37.516;2023-06-26T10:50:50;9.10;;;4.80;;
74291;SDS011;62687;55.738;37.516;2023-06-26T10:53:34;8.25;;;5.05;;
74291;SDS011;62687;55.738;37.516;2023-06-26T10:56:19;7.40;;;4.80;;
74291;SDS011;62687;55.738;37.516;2023-06-26T10:59:19;8.90;;;4.45;;
74291;SDS011;62687;55.738;37.516;2023-06-26T11:02:04;9.30;;;4.90;;
74291;SDS011;62687;55.738;37.516;2023-06-26T11:04:52;9.05;;;4.93;;
74291;SDS011;62687;55.738;37.516;2023-06-26T11:07:36;12.60;;;5.30;;
74291;SDS011;62687;55.738;37.516;2023-06-26T11:10:51;9.10;;;4.45;;
74291;SDS011;62687;55.738;37.516;2023-06-26T11:13:35;6.95;;;4.43;;
74291;SDS011;62687;55.738;37.516;2023-06-26T11:16:19;9.07;;;5.03;;
74291;SDS011;62687;55.738;37.516;2023-06-26T11:19:03;7.50;;;5.10;;
74291;SDS011;62687;55.738;37.516;2023-06-26T11:21:48;9.88;;;5.40;;
74291;SDS011;62687;55.738;37.516;2023-06-26T11:24:33;8.93;;;5.25;;
74291;SDS011;62687;55.738;37.516;2023-06-26T11:27:17;7.97;;;5.10;;
74291;SDS011;62687;55.738;37.516;2023-06-26T11:30:01;15.07;;;5.28;;
74291;SDS011;62687;55.738;37.516;2023-06-26T11:32:45;10.35;;;5.03;;
74291;SDS011;62687;55.738;37.516;2023-06-26T11:35:29;8.02;;;5.03;;
74291;SDS011;62687;55.738;37.516;2023-06-26T11:38:14;8.90;;;5.22;;
74291;SDS011;62687;55.738;37.516;2023-06-26T11:40:59;7.97;;;5.28;;
74291;SDS011;62687;55.738;37.516;2023-06-26T11:43:43;8.75;;;5.07;;
74291;SDS011;62687;55.738;37.516;2023-06-26T11:46:27;7.15;;;5.25;;
74291;SDS011;62687;55.738;37.516;2023-06-26T11:49:11;7.78;;;5.35;;
74291;SDS011;62687;55.738;37.516;2023-06-26T11:51:55;6.03;;;4.88;;
74291;SDS011;62687;55.738;37.516;2023-06-26T11:54:40;5.90;;;5.10;;
74291;SDS011;62687;55.738;37.516;2023-06-26T11:57:24;10.48;;;5.10;;
74291;SDS011;62687;55.738;37.516;2023-06-26T12:00:15;9.63;;;6.13;;
74291;SDS011;62687;55.738;37.516;2023-06-26T12:02:59;7.28;;;5.05;;
74291;SDS011;62687;55.738;37.516;2023-06-26T12:08:44;10.23;;;5.78;;
74291;SDS011;62687;55.738;37.516;2023-06-26T12:11:35;8.73;;;4.95;;
74291;SDS011;62687;55.738;37.516;2023-06-26T12:14:26;7.38;;;4.95;;
74291;SDS011;62687;55.738;37.516;2023-06-26T12:20:21;6.47;;;5.07;;
74291;SDS011;62687;55.738;37.516;2023-06-26T12:23:14;8.20;;;5.35;;
74291;SDS011;62687;55.738;37.516;2023-06-26T12:25:59;7.40;;;5.30;;
74291;SDS011;62687;55.738;37.516;2023-06-26T12:28:50;7.47;;;5.22;;
74291;SDS011;62687;55.738;37.516;2023-06-26T12:31:35;6.00;;;4.78;;
74291;SDS011;62687;55.738;37.516;2023-06-26T12:34:21;9.07;;;5.00;;
74291;SDS011;62687;55.738;37.516;2023-06-26T12:39:56;11.35;;;6.10;;
74291;SDS011;62687;55.738;37.516;2023-06-26T12:42:45;9.10;;;5.07;;
74291;SDS011;62687;55.738;37.516;2023-06-26T12:45:37;13.82;;;7.18;;
74291;SDS011;62687;55.738;37.516;2023-06-26T12:48:36;10.95;;;6.65;;
74291;SDS011;62687;55.738;37.516;2023-06-26T12:51:23;8.93;;;5.35;;
74291;SDS011;62687;55.738;37.516;2023-06-26T12:54:32;13.27;;;6.78;;
74291;SDS011;62687;55.738;37.516;2023-06-26T12:57:19;9.63;;;6.03;;
74291;SDS011;62687;55.738;37.516;2023-06-26T13:00:04;11.57;;;7.13;;
74291;SDS011;62687;55.738;37.516;2023-06-26T13:02:48;14.38;;;8.93;;
74291;SDS011;62687;55.738;37.516;2023-06-26T13:05:36;11.88;;;5.68;;
74291;SDS011;62687;55.738;37.516;2023-06-26T13:08:23;12.05;;;7.13;;
74291;SDS011;62687;55.738;37.516;2023-06-26T13:11:07;13.50;;;6.15;;
74291;SDS011;62687;55.738;37.516;2023-06-26T13:13:51;9.55;;;5.78;;
74291;SDS011;62687;55.738;37.516;2023-06-26T13:16:35;11.73;;;5.05;;
74291;SDS011;62687;55.738;37.516;2023-06-26T13:19:19;12.25;;;6.10;;
74291;SDS011;62687;55.738;37.516;2023-06-26T13:22:03;10.25;;;5.20;;
74291;SDS011;62687;55.738;37.516;2023-06-26T13:24:48;12.15;;;5.72;;
74291;SDS011;62687;55.738;37.516;2023-06-26T13:27:32;6.35;;;4.82;;
74291;SDS011;62687;55.738;37.516;2023-06-26T13:30:16;12.27;;;5.50;;
74291;SDS011;62687;55.738;37.516;2023-06-26T13:33:00;12.75;;;6.32;;
74291;SDS011;62687;55.738;37.516;2023-06-26T13:35:44;19.45;;;6.63;;
74291;SDS011;62687;55.738;37.516;2023-06-26T13:38:28;10.63;;;4.30;;
74291;SDS011;62687;55.738;37.516;2023-06-26T13:41:12;9.90;;;4.88;;
74291;SDS011;62687;55.738;37.516;2023-06-26T13:43:56;6.97;;;5.15;;
74291;SDS011;62687;55.738;37.516;2023-06-26T13:46:40;11.10;;;5.68;;
74291;SDS011;62687;55.738;37.516;2023-06-26T13:52:08;6.55;;;5.10;;
74291;SDS011;62687;55.738;37.516;2023-06-26T13:54:52;10.30;;;5.57;;
74291;SDS011;62687;55.738;37.516;2023-06-26T13:57:36;8.52;;;5.88;;
74291;SDS011;62687;55.738;37.516;2023-06-26T14:00:25;7.93;;;5.47;;
74291;SDS011;62687;55.738;37.516;2023-06-26T14:03:09;6.55;;;4.85;;
74291;SDS011;62687;55.738;37.516;2023-06-26T14:05:53;8.93;;;5.68;;
74291;SDS011;62687;55.738;37.516;2023-06-26T14:11:21;15.93;;;5.28;;
74291;SDS011;62687;55.738;37.516;2023-06-26T14:14:06;8.80;;;5.43;;
74291;SDS011;62687;55.738;37.516;2023-06-26T14:16:50;6.07;;;4.20;;
74291;SDS011;62687;55.738;37.516;2023-06-26T14:22:19;8.20;;;4.35;;
74291;SDS011;62687;55.738;37.516;2023-06-26T14:27:47;6.60;;;4.45;;
74291;SDS011;62687;55.738;37.516;2023-06-26T14:33:15;7.22;;;4.43;;
74291;SDS011;62687;55.738;37.516;2023-06-26T14:38:43;6.35;;;4.57;;
74291;SDS011;62687;55.738;37.516;2023-06-26T14:41:27;5.95;;;5.30;;
74291;SDS011;62687;55.738;37.516;2023-06-26T14:44:11;12.32;;;5.22;;
74291;SDS011;62687;55.738;37.516;2023-06-26T14:46:55;7.47;;;4.70;;
74291;SDS011;62687;55.738;37.516;2023-06-26T14:52:23;10.32;;;5.70;;
74291;SDS011;62687;55.738;37.516;2023-06-26T14:57:54;8.73;;;5.50;;
74291;SDS011;62687;55.738;37.516;2023-06-26T15:00:38;8.40;;;5.45;;
74291;SDS011;62687;55.738;37.516;2023-06-26T15:03:25;7.93;;;5.43;;
74291;SDS011;62687;55.738;37.516;2023-06-26T15:06:09;6.35;;;4.72;;
74291;SDS011;62687;55.738;37.516;2023-06-26T15:08:53;8.88;;;4.10;;
74291;SDS011;62687;55.738;37.516;2023-06-26T15:11:37;9.13;;;4.28;;
74291;SDS011;62687;55.738;37.516;2023-06-26T15:17:05;9.90;;;5.70;;
74291;SDS011;62687;55.738;37.516;2023-06-26T15:19:49;9.63;;;6.00;;
74291;SDS011;62687;55.738;37.516;2023-06-26T15:22:33;11.90;;;5.68;;
74291;SDS011;62687;55.738;37.516;2023-06-26T15:25:17;6.18;;;4.28;;
74291;SDS011;62687;55.738;37.516;2023-06-26T15:28:02;8.30;;;5.28;;
74291;SDS011;62687;55.738;37.516;2023-06-26T15:30:46;11.45;;;5.22;;
74291;SDS011;62687;55.738;37.516;2023-06-26T15:33:30;11.38;;;5.88;;
74291;SDS011;62687;55.738;37.516;2023-06-26T15:38:59;10.70;;;4.85;;
74291;SDS011;62687;55.738;37.516;2023-06-26T15:41:43;7.95;;;4.35;;
74291;SDS011;62687;55.738;37.516;2023-06-26T15:44:28;6.93;;;4.18;;
74291;SDS011;62687;55.738;37.516;2023-06-26T15:47:15;9.95;;;4.72;;
74291;SDS011;62687;55.738;37.516;2023-06-26T15:50:00;13.90;;;4.47;;
74291;SDS011;62687;55.738;37.516;2023-06-26T15:52:49;21.25;;;4.40;;
74291;SDS011;62687;55.738;37.516;2023-06-26T15:55:33;17.02;;;4.22;;
74291;SDS011;62687;55.738;37.516;2023-06-26T15:58:17;14.88;;;4.35;;
74291;SDS011;62687;55.738;37.516;2023-06-26T16:01:02;17.33;;;4.43;;
74291;SDS011;62687;55.738;37.516;2023-06-26T16:03:46;12.32;;;3.78;;
74291;SDS011;62687;55.738;37.516;2023-06-26T16:06:30;16.23;;;4.20;;
74291;SDS011;62687;55.738;37.516;2023-06-26T16:09:14;12.23;;;4.13;;
74291;SDS011;62687;55.738;37.516;2023-06-26T16:11:58;8.63;;;4.00;;
74291;SDS011;62687;55.738;37.516;2023-06-26T16:14:42;8.15;;;3.92;;
74291;SDS011;62687;55.738;37.516;2023-06-26T16:17:26;10.35;;;3.95;;
74291;SDS011;62687;55.738;37.516;2023-06-26T16:20:10;13.30;;;4.90;;
74291;SDS011;62687;55.738;37.516;2023-06-26T16:22:54;6.68;;;3.55;;
74291;SDS011;62687;55.738;37.516;2023-06-26T16:25:39;6.55;;;3.85;;
74291;SDS011;62687;55.738;37.516;2023-06-26T16:28:23;8.95;;;3.78;;
74291;SDS011;62687;55.738;37.516;2023-06-26T16:31:07;6.03;;;3.30;;
74291;SDS011;62687;55.738;37.516;2023-06-26T16:33:51;6.35;;;3.30;;
74291;SDS011;62687;55.738;37.516;2023-06-26T16:36:35;6.50;;;3.35;;
74291;SDS011;62687;55.738;37.516;2023-06-26T16:39:19;8.10;;;3.58;;
74291;SDS011;62687;55.738;37.516;2023-06-26T16:42:03;7.13;;;3.85;;
74291;SDS011;62687;55.738;37.516;2023-06-26T16:44:48;4.03;;;2.88;;
74291;SDS011;62687;55.738;37.516;2023-06-26T16:47:32;7.70;;;2.72;;
74291;SDS011;62687;55.738;37.516;2023-06-26T16:50:17;6.05;;;2.85;;
74291;SDS011;62687;55.738;37.516;2023-06-26T16:53:01;6.88;;;3.22;;
74291;SDS011;62687;55.738;37.516;2023-06-26T16:55:45;5.25;;;3.00;;